createdAt,value
2023-01-19T00:00:12.864Z,18.80
2023-01-19T00:01:12.852Z,18.00
2023-01-19T00:02:12.829Z,18.90
2023-01-19T00:03:12.893Z,18.40
2023-01-19T00:04:12.797Z,18.40
2023-01-19T00:05:12.780Z,18.00
2023-01-19T00:06:12.897Z,18.50
2023-01-19T00:07:12.763Z,18.60
2023-01-19T00:08:12.801Z,19.40
2023-01-19T00:09:12.754Z,20.40
2023-01-19T00:10:12.760Z,20.30
2023-01-19T00:11:12.742Z,21.90
2023-01-19T00:12:12.725Z,21.40
2023-01-19T00:13:12.795Z,21.10
2023-01-19T00:14:12.706Z,21.30
2023-01-19T00:15:12.747Z,19.70
2023-01-19T00:16:12.732Z,19.80
2023-01-19T00:17:12.725Z,19.00
2023-01-19T00:18:12.722Z,18.90
2023-01-19T00:19:12.753Z,19.30
2023-01-19T00:20:12.728Z,20.70
2023-01-19T00:21:12.666Z,20.90
2023-01-19T00:22:12.653Z,21.30
2023-01-19T00:23:12.664Z,20.60
2023-01-19T00:24:12.643Z,20.90
2023-01-19T00:25:12.623Z,21.30
2023-01-19T00:26:12.613Z,21.20
2023-01-19T00:27:12.620Z,20.70
2023-01-19T00:28:12.650Z,21.10
2023-01-19T00:29:12.593Z,20.30
2023-01-19T00:30:12.581Z,23.60
2023-01-19T00:31:12.639Z,22.60
2023-01-19T00:32:12.622Z,21.20
2023-01-19T00:33:12.634Z,21.60
2023-01-19T00:34:12.565Z,21.70
2023-01-19T00:35:12.593Z,22.40
2023-01-19T00:36:12.571Z,22.30
2023-01-19T00:37:12.700Z,22.10
2023-01-19T00:38:12.592Z,22.90
2023-01-19T00:39:12.529Z,23.20
2023-01-19T00:40:12.551Z,23.70
2023-01-19T00:41:12.548Z,23.80
2023-01-19T00:42:12.546Z,26.10
2023-01-19T00:43:12.542Z,25.50
2023-01-19T00:44:12.529Z,23.10
2023-01-19T00:45:12.524Z,24.70
2023-01-19T00:46:12.533Z,22.80
2023-01-19T00:47:12.534Z,22.70
2023-01-19T00:48:12.487Z,22.10
2023-01-19T00:49:12.484Z,22.90
2023-01-19T00:50:12.461Z,25.10
2023-01-19T00:51:12.468Z,25.10
2023-01-19T00:52:12.438Z,22.20
2023-01-19T00:53:12.452Z,23.90
2023-01-19T00:54:12.450Z,23.70
2023-01-19T00:55:12.484Z,26.20
2023-01-19T00:56:12.427Z,25.20
2023-01-19T00:57:12.478Z,24.20
2023-01-19T00:58:12.400Z,25.70
2023-01-19T00:59:12.430Z,26.80
2023-01-19T01:00:12.390Z,24.10
2023-01-19T01:01:12.499Z,22.10
2023-01-19T01:02:12.560Z,21.30
2023-01-19T01:03:12.470Z,21.10
2023-01-19T01:04:12.443Z,20.60
2023-01-19T01:05:12.389Z,20.20
2023-01-19T01:06:12.416Z,19.90
2023-01-19T01:07:12.345Z,20.00
2023-01-19T01:08:12.337Z,19.20
2023-01-19T01:09:12.411Z,20.10
2023-01-19T01:10:12.304Z,20.10
2023-01-19T01:11:12.317Z,21.10
2023-01-19T01:12:12.287Z,22.40
2023-01-19T01:13:20.499Z,23.40
2023-01-19T01:14:13.326Z,23.90
2023-01-19T01:15:13.325Z,23.00
2023-01-19T01:16:12.321Z,19.00
2023-01-19T01:17:12.279Z,20.00
2023-01-19T01:18:12.305Z,20.50
2023-01-19T01:19:12.270Z,22.80
2023-01-19T01:20:12.247Z,23.90
2023-01-19T01:21:12.242Z,25.10
2023-01-19T01:22:12.220Z,23.00
2023-01-19T01:23:12.232Z,23.20
2023-01-19T01:24:12.236Z,23.10
2023-01-19T01:25:12.202Z,22.80
2023-01-19T01:26:12.233Z,22.00
2023-01-19T01:27:12.206Z,20.30
2023-01-19T01:28:12.204Z,21.30
2023-01-19T01:29:12.173Z,20.90
2023-01-19T01:30:12.199Z,20.40
2023-01-19T01:31:12.236Z,21.80
2023-01-19T01:32:12.166Z,21.70
2023-01-19T01:33:12.152Z,20.20
2023-01-19T01:34:12.153Z,21.80
2023-01-19T01:35:12.173Z,21.00
2023-01-19T01:36:12.195Z,23.60
2023-01-19T01:37:12.131Z,24.50
2023-01-19T01:38:12.129Z,25.10
2023-01-19T01:39:12.104Z,26.20
2023-01-19T01:40:12.129Z,23.80
2023-01-19T01:41:12.082Z,23.90
2023-01-19T01:42:12.119Z,22.30
2023-01-19T01:43:12.072Z,23.50
2023-01-19T01:44:12.095Z,22.30
2023-01-19T01:45:12.108Z,22.60
2023-01-19T01:46:12.075Z,21.40
2023-01-19T01:47:12.078Z,20.10
2023-01-19T01:48:12.049Z,18.60
2023-01-19T01:49:12.044Z,18.70
2023-01-19T01:50:12.055Z,18.50
2023-01-19T01:51:12.017Z,18.50
2023-01-19T01:52:12.044Z,19.80
2023-01-19T01:53:12.365Z,19.90
2023-01-19T01:54:12.049Z,24.60
2023-01-19T01:55:12.053Z,31.00
2023-01-19T01:56:11.992Z,28.10
2023-01-19T01:57:11.991Z,29.50
2023-01-19T01:58:11.984Z,28.30
2023-01-19T01:59:11.969Z,27.10
2023-01-19T02:00:11.980Z,25.70
2023-01-19T02:01:12.041Z,27.90
2023-01-19T02:02:11.937Z,27.90
2023-01-19T02:03:11.972Z,23.90
2023-01-19T02:04:11.908Z,20.50
2023-01-19T02:05:11.910Z,20.40
2023-01-19T02:06:11.935Z,19.80
2023-01-19T02:07:11.931Z,19.20
2023-01-19T02:08:11.924Z,19.20
2023-01-19T02:09:11.910Z,19.80
2023-01-19T02:10:11.891Z,18.90
2023-01-19T02:11:11.901Z,20.70
2023-01-19T02:12:11.899Z,21.60
2023-01-19T02:13:11.915Z,21.80
2023-01-19T02:14:11.911Z,22.20
2023-01-19T02:15:11.854Z,21.20
2023-01-19T02:16:11.911Z,20.70
2023-01-19T02:17:11.859Z,20.50
2023-01-19T02:18:11.848Z,21.20
2023-01-19T02:19:11.868Z,21.20
2023-01-19T02:20:11.800Z,21.30
2023-01-19T02:21:11.828Z,20.50
2023-01-19T02:22:11.842Z,20.50
2023-01-19T02:23:11.812Z,20.60
2023-01-19T02:24:11.791Z,20.60
2023-01-19T02:25:11.772Z,19.30
2023-01-19T02:26:11.775Z,19.60
2023-01-19T02:27:11.823Z,21.80
2023-01-19T02:28:11.755Z,29.20
2023-01-19T02:29:11.744Z,31.10
2023-01-19T02:30:11.744Z,32.60
2023-01-19T02:31:11.724Z,30.60
2023-01-19T02:32:11.750Z,28.40
2023-01-19T02:33:11.722Z,27.80
2023-01-19T02:34:11.719Z,25.20
2023-01-19T02:35:11.731Z,24.70
2023-01-19T02:36:11.685Z,23.50
2023-01-19T02:37:11.727Z,21.30
2023-01-19T02:38:11.696Z,21.40
2023-01-19T02:39:11.650Z,19.90
2023-01-19T02:40:11.713Z,19.90
2023-01-19T02:41:11.637Z,19.50
2023-01-19T02:42:11.668Z,20.50
2023-01-19T02:43:11.626Z,20.90
2023-01-19T02:44:11.654Z,20.50
2023-01-19T02:45:11.623Z,21.50
2023-01-19T02:46:11.696Z,24.40
2023-01-19T02:47:11.629Z,27.30
2023-01-19T02:48:11.640Z,30.80
2023-01-19T02:49:11.613Z,27.00
2023-01-19T02:50:11.596Z,27.60
2023-01-19T02:51:11.567Z,27.80
2023-01-19T02:52:11.634Z,27.00
2023-01-19T02:53:11.569Z,27.30
2023-01-19T02:54:11.553Z,25.90
2023-01-19T02:55:11.547Z,25.40
2023-01-19T02:56:11.542Z,22.10
2023-01-19T02:57:11.547Z,19.60
2023-01-19T02:58:11.603Z,17.00
2023-01-19T02:59:11.588Z,17.70
2023-01-19T03:00:11.555Z,17.10
2023-01-19T03:01:11.596Z,17.30
2023-01-19T03:02:11.609Z,17.10
2023-01-19T03:03:11.523Z,17.00
2023-01-19T03:04:11.496Z,16.60
2023-01-19T03:05:11.483Z,17.10
2023-01-19T03:06:11.486Z,17.40
2023-01-19T03:07:11.489Z,18.20
2023-01-19T03:08:11.473Z,17.90
2023-01-19T03:09:11.456Z,17.40
2023-01-19T03:10:11.452Z,18.60
2023-01-19T03:11:11.511Z,18.10
2023-01-19T03:12:11.414Z,19.10
2023-01-19T03:13:11.446Z,19.10
2023-01-19T03:14:11.429Z,19.10
2023-01-19T03:15:11.425Z,19.30
2023-01-19T03:16:11.477Z,18.90
2023-01-19T03:17:11.400Z,19.50
2023-01-19T03:18:11.427Z,19.70
2023-01-19T03:19:11.386Z,19.90
2023-01-19T03:20:11.412Z,21.00
2023-01-19T03:21:11.365Z,20.80
2023-01-19T03:22:11.420Z,21.60
2023-01-19T03:23:11.420Z,23.10
2023-01-19T03:24:11.339Z,22.40
2023-01-19T03:25:11.325Z,23.10
2023-01-19T03:26:11.333Z,22.50
2023-01-19T03:27:11.443Z,20.90
2023-01-19T03:28:11.329Z,19.50
2023-01-19T03:29:11.302Z,18.00
2023-01-19T03:30:11.368Z,18.50
2023-01-19T03:31:11.322Z,17.40
2023-01-19T03:32:11.272Z,17.20
2023-01-19T03:33:11.329Z,17.70
2023-01-19T03:34:11.290Z,18.00
2023-01-19T03:35:11.243Z,18.00
2023-01-19T03:36:11.253Z,18.60
2023-01-19T03:37:11.269Z,19.00
2023-01-19T03:38:11.234Z,18.50
2023-01-19T03:39:11.271Z,18.20
2023-01-19T03:40:11.233Z,18.50
2023-01-19T03:41:11.209Z,17.80
2023-01-19T03:42:11.240Z,18.10
2023-01-19T03:43:11.211Z,17.80
2023-01-19T03:44:11.217Z,18.10
2023-01-19T03:45:11.195Z,18.10
2023-01-19T03:46:11.316Z,17.80
2023-01-19T03:47:11.182Z,18.10
2023-01-19T03:48:11.155Z,18.30
2023-01-19T03:49:11.227Z,18.30
2023-01-19T03:50:11.152Z,18.50
2023-01-19T03:51:11.131Z,19.00
2023-01-19T03:52:11.145Z,18.80
2023-01-19T03:53:11.994Z,18.70
2023-01-19T03:54:11.227Z,18.90
2023-01-19T03:55:11.121Z,18.50
2023-01-19T03:56:11.115Z,18.50
2023-01-19T03:57:11.118Z,19.30
2023-01-19T03:58:11.103Z,18.90
2023-01-19T03:59:11.095Z,18.60
2023-01-19T04:00:11.127Z,18.50
2023-01-19T04:01:11.215Z,18.50
2023-01-19T04:02:11.178Z,18.80
2023-01-19T04:03:11.120Z,18.80
2023-01-19T04:04:11.081Z,19.40
2023-01-19T04:05:11.082Z,19.70
2023-01-19T04:06:11.073Z,18.30
2023-01-19T04:07:11.028Z,18.70
2023-01-19T04:08:11.034Z,18.80
2023-01-19T04:09:11.017Z,18.50
2023-01-19T04:10:11.024Z,18.90
2023-01-19T04:11:11.019Z,18.60
2023-01-19T04:12:11.021Z,19.30
2023-01-19T04:13:10.974Z,18.90
2023-01-19T04:14:10.979Z,18.80
2023-01-19T04:15:11.019Z,18.30
2023-01-19T04:16:10.998Z,17.50
2023-01-19T04:17:10.945Z,17.80
2023-01-19T04:18:11.001Z,17.90
2023-01-19T04:19:10.951Z,17.30
2023-01-19T04:20:10.997Z,17.10
2023-01-19T04:21:10.927Z,18.50
2023-01-19T04:22:10.978Z,20.60
2023-01-19T04:23:10.936Z,20.80
2023-01-19T04:24:10.917Z,22.10
2023-01-19T04:25:10.962Z,21.70
2023-01-19T04:26:10.892Z,22.60
2023-01-19T04:27:10.904Z,22.80
2023-01-19T04:28:11.851Z,20.60
2023-01-19T04:29:10.864Z,19.10
2023-01-19T04:30:10.894Z,18.50
2023-01-19T04:31:10.949Z,17.90
2023-01-19T04:32:10.843Z,17.80
2023-01-19T04:33:10.821Z,18.30
2023-01-19T04:34:10.820Z,17.50
2023-01-19T04:35:10.827Z,16.80
2023-01-19T04:36:10.873Z,17.20
2023-01-19T04:37:10.844Z,18.10
2023-01-19T04:38:10.846Z,17.90
2023-01-19T04:39:10.797Z,18.10
2023-01-19T04:40:10.820Z,18.20
2023-01-19T04:41:10.841Z,18.80
2023-01-19T04:42:43.863Z,18.60
2023-01-19T04:43:10.749Z,18.60
2023-01-19T04:44:10.748Z,18.00
2023-01-19T04:45:10.739Z,18.00
2023-01-19T04:46:10.829Z,17.60
2023-01-19T04:47:10.723Z,17.90
2023-01-19T04:48:10.719Z,17.50
2023-01-19T04:49:10.705Z,17.40
2023-01-19T04:50:10.709Z,17.70
2023-01-19T04:51:10.722Z,18.20
2023-01-19T04:52:10.674Z,18.10
2023-01-19T04:53:11.695Z,18.90
2023-01-19T04:54:10.680Z,17.70
2023-01-19T04:55:10.668Z,16.50
2023-01-19T04:56:10.699Z,16.70
2023-01-19T04:57:10.661Z,16.60
2023-01-19T04:58:10.670Z,16.00
2023-01-19T04:59:10.649Z,16.00
2023-01-19T05:00:10.632Z,15.60
2023-01-19T05:01:10.711Z,15.60
2023-01-19T05:02:10.725Z,15.60
2023-01-19T05:03:10.656Z,15.60
2023-01-19T05:04:10.609Z,15.60
2023-01-19T05:05:10.599Z,15.40
2023-01-19T05:06:10.614Z,15.50
2023-01-19T05:07:10.590Z,15.80
2023-01-19T05:08:10.579Z,16.10
2023-01-19T05:09:10.574Z,16.30
2023-01-19T05:10:10.566Z,16.30
2023-01-19T05:11:10.581Z,16.10
2023-01-19T05:12:10.566Z,15.40
2023-01-19T05:13:10.541Z,16.20
2023-01-19T05:14:10.530Z,15.80
2023-01-19T05:15:10.535Z,15.60
2023-01-19T05:16:10.606Z,15.50
2023-01-19T05:17:10.509Z,16.20
2023-01-19T05:18:10.505Z,16.00
2023-01-19T05:19:10.498Z,16.40
2023-01-19T05:20:10.497Z,15.60
2023-01-19T05:21:10.512Z,15.90
2023-01-19T05:22:10.481Z,15.80
2023-01-19T05:23:10.467Z,16.30
2023-01-19T05:24:10.468Z,16.00
2023-01-19T05:25:10.473Z,16.20
2023-01-19T05:26:10.541Z,16.60
2023-01-19T05:27:10.443Z,16.30
2023-01-19T05:28:10.435Z,16.20
2023-01-19T05:29:10.436Z,16.30
2023-01-19T05:30:10.424Z,16.20
2023-01-19T05:31:10.552Z,16.00
2023-01-19T05:32:10.410Z,16.30
2023-01-19T05:33:10.395Z,16.50
2023-01-19T05:34:10.388Z,16.40
2023-01-19T05:35:10.387Z,16.50
2023-01-19T05:36:10.424Z,16.50
2023-01-19T05:37:10.376Z,17.10
2023-01-19T05:38:10.372Z,16.60
2023-01-19T05:39:10.356Z,16.30
2023-01-19T05:40:10.356Z,16.50
2023-01-19T05:41:10.371Z,16.70
2023-01-19T05:42:10.329Z,16.90
2023-01-19T05:43:10.325Z,16.90
2023-01-19T05:44:10.325Z,16.00
2023-01-19T05:45:10.315Z,16.30
2023-01-19T05:46:10.332Z,16.50
2023-01-19T05:47:10.303Z,15.90
2023-01-19T05:48:10.340Z,15.90
2023-01-19T05:49:10.287Z,15.90
2023-01-19T05:50:10.279Z,16.40
2023-01-19T05:51:10.294Z,15.60
2023-01-19T05:52:10.266Z,16.30
2023-01-19T05:53:10.260Z,15.90
2023-01-19T05:54:10.248Z,15.90
2023-01-19T05:55:10.247Z,15.60
2023-01-19T05:56:10.268Z,16.00
2023-01-19T05:57:10.230Z,16.70
2023-01-19T05:58:10.983Z,15.40
2023-01-19T05:59:10.209Z,16.20
2023-01-19T06:00:10.293Z,16.70
2023-01-19T06:01:10.273Z,16.40
2023-01-19T06:02:10.223Z,16.80
2023-01-19T06:03:10.270Z,16.40
2023-01-19T06:04:10.169Z,16.20
2023-01-19T06:05:10.172Z,17.20
2023-01-19T06:06:10.190Z,17.10
2023-01-19T06:07:10.154Z,17.30
2023-01-19T06:08:10.148Z,18.40
2023-01-19T06:09:10.150Z,19.40
2023-01-19T06:10:10.140Z,18.80
2023-01-19T06:11:10.176Z,18.90
2023-01-19T06:12:10.130Z,18.70
2023-01-19T06:13:10.122Z,18.20
2023-01-19T06:14:10.103Z,18.30
2023-01-19T06:15:10.119Z,17.90
2023-01-19T06:16:10.144Z,18.50
2023-01-19T06:17:10.094Z,17.70
2023-01-19T06:18:10.078Z,17.70
2023-01-19T06:19:10.072Z,17.80
2023-01-19T06:20:10.064Z,18.40
2023-01-19T06:21:10.059Z,18.40
2023-01-19T06:22:10.074Z,17.70
2023-01-19T06:23:10.050Z,17.60
2023-01-19T06:24:10.042Z,18.40
2023-01-19T06:25:10.028Z,18.30
2023-01-19T06:26:10.025Z,17.70
2023-01-19T06:27:10.040Z,17.70
2023-01-19T06:28:09.999Z,18.50
2023-01-19T06:29:10.009Z,18.00
2023-01-19T06:30:09.995Z,18.00
2023-01-19T06:31:10.092Z,17.80
2023-01-19T06:32:10.075Z,18.30
2023-01-19T06:33:09.972Z,17.60
2023-01-19T06:34:09.969Z,18.30
2023-01-19T06:35:09.947Z,18.20
2023-01-19T06:36:09.951Z,18.20
2023-01-19T06:37:09.975Z,18.40
2023-01-19T06:38:09.935Z,17.80
2023-01-19T06:39:09.933Z,18.10
2023-01-19T06:40:09.919Z,18.30
2023-01-19T06:41:09.912Z,17.70
2023-01-19T06:42:09.929Z,18.00
2023-01-19T06:43:09.915Z,18.20
2023-01-19T06:44:09.911Z,20.60
2023-01-19T06:45:09.892Z,21.40
2023-01-19T06:46:09.929Z,20.70
2023-01-19T06:47:15.290Z,21.70
2023-01-19T06:48:10.881Z,21.50
2023-01-19T06:49:09.875Z,21.70
2023-01-19T06:50:09.850Z,20.90
2023-01-19T06:51:09.846Z,21.30
2023-01-19T06:52:09.869Z,21.60
2023-01-19T06:53:09.828Z,21.80
2023-01-19T06:54:09.831Z,21.00
2023-01-19T06:55:09.814Z,21.80
2023-01-19T06:56:09.807Z,21.70
2023-01-19T06:57:09.822Z,21.60
2023-01-19T06:58:09.812Z,21.60
2023-01-19T06:59:09.786Z,21.90
2023-01-19T07:00:09.781Z,21.70
2023-01-19T07:01:09.917Z,21.60
2023-01-19T07:02:27.917Z,21.10
2023-01-19T07:03:11.806Z,21.80
2023-01-19T07:04:09.756Z,22.20
2023-01-19T07:05:09.755Z,22.00
2023-01-19T07:06:09.734Z,21.80
2023-01-19T07:07:09.753Z,21.10
2023-01-19T07:08:09.721Z,21.60
2023-01-19T07:09:09.721Z,21.80
2023-01-19T07:10:09.710Z,21.90
2023-01-19T07:11:22.362Z,22.90
2023-01-19T07:12:10.722Z,22.60
2023-01-19T07:13:09.694Z,22.70
2023-01-19T07:14:09.685Z,22.00
2023-01-19T07:15:09.672Z,22.50
2023-01-19T07:16:09.663Z,22.00
2023-01-19T07:17:09.683Z,22.50
2023-01-19T07:18:10.662Z,22.20
2023-01-19T07:19:09.649Z,23.00
2023-01-19T07:20:09.637Z,20.50
2023-01-19T07:21:09.634Z,19.80
2023-01-19T07:22:09.677Z,20.40
2023-01-19T07:23:09.614Z,21.30
2023-01-19T07:24:09.613Z,22.40
2023-01-19T07:25:09.639Z,23.40
2023-01-19T07:26:09.611Z,22.50
2023-01-19T07:27:09.612Z,22.90
2023-01-19T07:28:09.587Z,22.70
2023-01-19T07:29:09.576Z,22.30
2023-01-19T07:30:09.573Z,22.60
2023-01-19T07:31:09.725Z,23.00
2023-01-19T07:32:10.588Z,22.80
2023-01-19T07:33:09.545Z,32.30
2023-01-19T07:34:11.191Z,23.40
2023-01-19T07:35:09.533Z,50.50
2023-01-19T07:36:09.535Z,60.90
2023-01-19T07:37:09.566Z,35.40
2023-01-19T07:38:09.521Z,34.60
2023-01-19T07:39:09.524Z,29.40
2023-01-19T07:40:09.513Z,24.60
2023-01-19T07:41:09.499Z,25.70
2023-01-19T07:42:09.516Z,22.00
2023-01-19T07:43:09.496Z,24.80
2023-01-19T07:44:09.490Z,26.20
2023-01-19T07:45:09.469Z,26.50
2023-01-19T07:46:09.501Z,24.30
2023-01-19T07:47:09.482Z,25.00
2023-01-19T07:48:09.458Z,23.90
2023-01-19T07:49:09.447Z,23.40
2023-01-19T07:50:09.433Z,23.10
2023-01-19T07:51:12.498Z,22.90
2023-01-19T07:52:10.447Z,23.10
2023-01-19T07:53:09.413Z,25.20
2023-01-19T07:54:09.410Z,24.00
2023-01-19T07:55:09.396Z,24.10
2023-01-19T07:56:09.394Z,23.00
2023-01-19T07:57:09.405Z,23.60
2023-01-19T07:58:09.376Z,31.40
2023-01-19T07:59:09.367Z,30.80
2023-01-19T08:00:09.358Z,32.40
2023-01-19T08:01:09.490Z,26.00
2023-01-19T08:02:09.418Z,27.10
2023-01-19T08:03:09.339Z,24.00
2023-01-19T08:04:09.361Z,24.80
2023-01-19T08:05:09.328Z,23.10
2023-01-19T08:06:09.328Z,22.60
2023-01-19T08:07:09.339Z,22.30
2023-01-19T08:08:09.308Z,23.30
2023-01-19T08:09:09.288Z,24.30
2023-01-19T08:10:10.312Z,22.20
2023-01-19T08:11:09.288Z,23.00
2023-01-19T08:12:09.302Z,23.40
2023-01-19T08:13:09.281Z,17.90
2023-01-19T08:14:09.267Z,18.80
2023-01-19T08:15:09.252Z,21.50
2023-01-19T08:16:09.297Z,20.90
2023-01-19T08:17:09.267Z,21.40
2023-01-19T08:18:09.231Z,22.60
2023-01-19T08:19:09.245Z,21.90
2023-01-19T08:20:09.256Z,20.60
2023-01-19T08:21:09.226Z,20.00
2023-01-19T08:22:09.237Z,19.40
2023-01-19T08:23:09.199Z,19.60
2023-01-19T08:24:09.218Z,18.70
2023-01-19T08:25:09.182Z,19.50
2023-01-19T08:26:09.176Z,19.10
2023-01-19T08:27:09.244Z,19.80
2023-01-19T08:28:09.176Z,20.50
2023-01-19T08:29:09.172Z,18.40
2023-01-19T08:30:09.156Z,19.50
2023-01-19T08:31:20.148Z,18.40
2023-01-19T08:32:11.273Z,18.70
2023-01-19T08:33:09.121Z,17.80
2023-01-19T08:34:09.110Z,17.90
2023-01-19T08:35:09.106Z,19.10
2023-01-19T08:36:09.096Z,18.90
2023-01-19T08:37:09.120Z,19.20
2023-01-19T08:38:09.089Z,17.20
2023-01-19T08:39:09.087Z,14.70
2023-01-19T08:40:09.067Z,15.10
2023-01-19T08:41:09.063Z,14.20
2023-01-19T08:42:09.061Z,17.40
2023-01-19T08:43:09.101Z,18.40
2023-01-19T08:44:09.050Z,17.00
2023-01-19T08:45:09.028Z,16.80
2023-01-19T08:46:09.091Z,17.00
2023-01-19T08:47:09.072Z,17.60
2023-01-19T08:48:09.031Z,19.30
2023-01-19T08:49:08.994Z,18.90
2023-01-19T08:50:08.996Z,19.90
2023-01-19T08:51:08.993Z,18.60
2023-01-19T08:52:08.976Z,22.00
2023-01-19T08:53:08.998Z,19.10
2023-01-19T08:54:09.889Z,19.40
2023-01-19T08:55:08.952Z,19.50
2023-01-19T08:56:08.946Z,20.50
2023-01-19T08:57:08.938Z,20.60
2023-01-19T08:58:08.964Z,24.10
2023-01-19T08:59:11.307Z,18.90
2023-01-19T09:00:09.916Z,20.30
2023-01-19T09:01:08.951Z,20.40
2023-01-19T09:02:08.976Z,21.20
2023-01-19T09:03:08.973Z,19.80
2023-01-19T09:04:08.879Z,19.20
2023-01-19T09:05:08.883Z,18.80
2023-01-19T09:06:08.877Z,20.10
2023-01-19T09:07:08.863Z,20.00
2023-01-19T09:08:08.887Z,20.10
2023-01-19T09:09:08.843Z,19.40
2023-01-19T09:10:08.839Z,20.20
2023-01-19T09:11:08.829Z,18.80
2023-01-19T09:12:08.854Z,18.60
2023-01-19T09:13:08.852Z,18.70
2023-01-19T09:14:08.829Z,18.40
2023-01-19T09:15:08.828Z,17.90
2023-01-19T09:16:08.860Z,17.60
2023-01-19T09:17:08.784Z,16.40
2023-01-19T09:18:08.800Z,16.60
2023-01-19T09:19:08.786Z,15.50
2023-01-19T09:20:08.752Z,15.70
2023-01-19T09:21:08.748Z,15.60
2023-01-19T09:22:08.739Z,15.60
2023-01-19T09:23:08.781Z,16.00
2023-01-19T09:24:08.763Z,18.10
2023-01-19T09:25:08.748Z,18.50
2023-01-19T09:26:08.716Z,16.50
2023-01-19T09:27:08.708Z,16.70
2023-01-19T09:28:08.731Z,17.20
2023-01-19T09:29:08.707Z,18.30
2023-01-19T09:30:08.689Z,15.40
2023-01-19T09:31:08.817Z,16.40
2023-01-19T09:32:08.670Z,13.90
2023-01-19T09:33:08.685Z,15.70
2023-01-19T09:34:08.667Z,16.30
2023-01-19T09:35:08.654Z,17.00
2023-01-19T09:36:08.631Z,15.60
2023-01-19T09:37:08.628Z,17.30
2023-01-19T09:38:08.653Z,17.20
2023-01-19T09:39:08.611Z,19.30
2023-01-19T09:40:08.677Z,16.40
2023-01-19T09:41:08.598Z,15.50
2023-01-19T09:42:08.597Z,17.20
2023-01-19T09:43:08.615Z,17.70
2023-01-19T09:44:08.584Z,17.30
2023-01-19T09:45:09.920Z,18.30
2023-01-19T09:46:08.596Z,18.20
2023-01-19T09:47:08.562Z,17.60
2023-01-19T09:48:08.555Z,18.70
2023-01-19T09:49:08.570Z,17.60
2023-01-19T09:50:08.540Z,16.70
2023-01-19T09:51:08.535Z,15.50
2023-01-19T09:52:08.523Z,14.50
2023-01-19T09:53:08.516Z,14.10
2023-01-19T09:54:08.599Z,15.10
2023-01-19T09:55:08.503Z,15.90
2023-01-19T09:56:08.491Z,14.30
2023-01-19T09:57:08.492Z,13.40
2023-01-19T09:58:08.479Z,13.70
2023-01-19T09:59:08.527Z,13.10
2023-01-19T10:00:08.470Z,13.00
2023-01-19T10:01:08.620Z,13.40
2023-01-19T10:02:08.462Z,13.10
2023-01-19T10:03:08.482Z,12.70
2023-01-19T10:04:08.476Z,12.90
2023-01-19T10:05:08.426Z,13.00
2023-01-19T10:06:08.416Z,13.60
2023-01-19T10:07:08.442Z,13.50
2023-01-19T10:08:08.415Z,13.60
2023-01-19T10:09:08.439Z,13.20
2023-01-19T10:10:08.449Z,12.80
2023-01-19T10:11:08.414Z,12.40
2023-01-19T10:12:08.387Z,15.10
2023-01-19T10:13:08.363Z,14.30
2023-01-19T10:14:10.011Z,14.40
2023-01-19T10:15:08.364Z,15.50
2023-01-19T10:16:08.404Z,13.70
2023-01-19T10:17:08.342Z,15.70
2023-01-19T10:18:08.326Z,14.30
2023-01-19T10:19:08.351Z,15.60
2023-01-19T10:20:08.311Z,15.30
2023-01-19T10:21:08.304Z,17.80
2023-01-19T10:22:08.296Z,15.20
2023-01-19T10:23:08.307Z,14.50
2023-01-19T10:24:08.310Z,15.60
2023-01-19T10:25:08.276Z,17.90
2023-01-19T10:26:08.261Z,17.60
2023-01-19T10:27:08.260Z,15.30
2023-01-19T10:28:08.257Z,14.10
2023-01-19T10:29:08.652Z,13.80
2023-01-19T10:30:08.247Z,13.30
2023-01-19T10:31:08.385Z,13.00
2023-01-19T10:32:08.288Z,13.30
2023-01-19T10:33:08.231Z,15.80
2023-01-19T10:34:08.228Z,14.70
2023-01-19T10:35:08.196Z,14.10
2023-01-19T10:36:08.203Z,15.80
2023-01-19T10:37:08.266Z,15.80
2023-01-19T10:38:08.215Z,15.40
2023-01-19T10:39:08.212Z,15.80
2023-01-19T10:40:08.210Z,15.80
2023-01-19T10:41:08.149Z,16.70
2023-01-19T10:42:08.182Z,16.10
2023-01-19T10:43:40.956Z,15.80
2023-01-19T10:44:08.192Z,15.90
2023-01-19T10:45:08.214Z,16.60
2023-01-19T10:46:08.250Z,16.20
2023-01-19T10:47:08.178Z,16.70
2023-01-19T10:48:08.121Z,17.60
2023-01-19T10:49:08.125Z,17.50
2023-01-19T10:50:08.249Z,17.30
2023-01-19T10:51:08.229Z,19.60
2023-01-19T10:52:08.141Z,21.20
2023-01-19T10:53:08.181Z,18.90
2023-01-19T10:54:08.195Z,17.70
2023-01-19T10:55:08.237Z,19.30
2023-01-19T10:56:08.097Z,19.20
2023-01-19T10:57:08.176Z,18.20
2023-01-19T10:58:08.203Z,18.20
2023-01-19T10:59:08.157Z,17.60
2023-01-19T11:00:08.151Z,17.60
2023-01-19T11:01:08.176Z,17.30
2023-01-19T11:02:08.273Z,17.20
2023-01-19T11:03:08.114Z,17.40
2023-01-19T11:04:08.056Z,18.30
2023-01-19T11:05:08.247Z,17.60
2023-01-19T11:06:08.073Z,20.40
2023-01-19T11:07:08.050Z,17.50
2023-01-19T11:08:07.989Z,17.40
2023-01-19T11:09:08.032Z,17.30
2023-01-19T11:10:08.025Z,18.30
2023-01-19T11:11:08.039Z,18.00
2023-01-19T11:12:08.039Z,18.20
2023-01-19T11:13:07.981Z,18.20
2023-01-19T11:14:08.205Z,18.60
2023-01-19T11:15:08.030Z,19.50
2023-01-19T11:16:08.016Z,16.90
2023-01-19T11:17:07.972Z,30.80
2023-01-19T11:18:07.973Z,18.70
2023-01-19T11:19:08.058Z,18.30
2023-01-19T11:20:08.025Z,18.90
2023-01-19T11:21:07.920Z,20.10
2023-01-19T11:22:07.921Z,20.00
2023-01-19T11:23:07.951Z,22.20
2023-01-19T11:24:07.878Z,19.40
2023-01-19T11:25:07.900Z,19.10
2023-01-19T11:26:07.957Z,19.00
2023-01-19T11:27:07.999Z,18.10
2023-01-19T11:28:07.860Z,21.30
2023-01-19T11:29:07.817Z,18.30
2023-01-19T11:30:07.845Z,17.30
2023-01-19T11:31:07.878Z,18.90
2023-01-19T11:32:07.883Z,16.90
2023-01-19T11:33:07.844Z,17.10
2023-01-19T11:34:07.849Z,17.30
2023-01-19T11:35:07.810Z,18.20
2023-01-19T11:36:07.877Z,15.70
2023-01-19T11:37:07.797Z,17.20
2023-01-19T11:38:07.792Z,16.50
2023-01-19T11:39:07.736Z,15.40
2023-01-19T11:40:07.809Z,16.80
2023-01-19T11:41:07.815Z,16.30
2023-01-19T11:42:07.816Z,15.40
2023-01-19T11:43:07.716Z,17.00
2023-01-19T11:44:07.775Z,17.60
2023-01-19T11:45:07.783Z,16.60
2023-01-19T11:46:07.942Z,14.90
2023-01-19T11:47:07.692Z,14.10
2023-01-19T11:48:07.750Z,15.60
2023-01-19T11:49:07.749Z,17.10
2023-01-19T11:50:07.657Z,17.30
2023-01-19T11:51:07.817Z,14.20
2023-01-19T11:52:07.730Z,13.60
2023-01-19T11:53:07.684Z,15.30
2023-01-19T11:54:07.703Z,15.10
2023-01-19T11:55:07.819Z,16.30
2023-01-19T11:56:07.646Z,17.90
2023-01-19T11:57:07.613Z,17.00
2023-01-19T11:58:07.654Z,17.70
2023-01-19T11:59:07.643Z,15.60
2023-01-19T12:00:07.616Z,16.70
2023-01-19T12:01:07.668Z,15.60
2023-01-19T12:02:08.687Z,15.60
2023-01-19T12:03:07.721Z,16.40
2023-01-19T12:04:07.598Z,17.30
2023-01-19T12:05:07.618Z,18.90
2023-01-19T12:06:07.773Z,17.30
2023-01-19T12:07:07.586Z,16.50
2023-01-19T12:08:07.971Z,18.20
2023-01-19T12:09:07.533Z,16.40
2023-01-19T12:10:07.587Z,20.50
2023-01-19T12:11:07.567Z,25.50
2023-01-19T12:12:07.525Z,21.30
2023-01-19T12:13:07.525Z,21.80
2023-01-19T12:14:08.551Z,20.50
2023-01-19T12:15:07.616Z,20.20
2023-01-19T12:16:07.521Z,19.70
2023-01-19T12:17:07.549Z,17.30
2023-01-19T12:18:07.547Z,22.50
2023-01-19T12:19:07.469Z,27.20
2023-01-19T12:20:07.475Z,24.10
2023-01-19T12:21:07.481Z,19.20
2023-01-19T12:22:07.472Z,18.30
2023-01-19T12:23:07.472Z,16.50
2023-01-19T12:24:07.431Z,18.60
2023-01-19T12:25:07.446Z,17.30
2023-01-19T12:26:07.515Z,19.70
2023-01-19T12:27:07.882Z,17.80
2023-01-19T12:28:07.511Z,17.40
2023-01-19T12:29:07.497Z,15.60
2023-01-19T12:30:07.476Z,16.80
2023-01-19T12:31:07.526Z,15.70
2023-01-19T12:32:07.367Z,15.90
2023-01-19T12:33:07.412Z,16.50
2023-01-19T12:34:07.373Z,17.20
2023-01-19T12:35:07.368Z,16.80
2023-01-19T12:36:07.369Z,15.40
2023-01-19T12:37:07.428Z,17.40
2023-01-19T12:38:07.317Z,17.30
2023-01-19T12:39:07.367Z,14.70
2023-01-19T12:40:07.418Z,15.30
2023-01-19T12:41:07.285Z,16.00
2023-01-19T12:42:07.336Z,16.30
2023-01-19T12:43:07.295Z,14.90
2023-01-19T12:44:07.329Z,13.20
2023-01-19T12:45:07.317Z,13.70
2023-01-19T12:46:07.311Z,13.80
2023-01-19T12:47:07.291Z,13.10
2023-01-19T12:48:07.244Z,13.80
2023-01-19T12:49:07.244Z,14.30
2023-01-19T12:50:07.288Z,13.40
2023-01-19T12:51:07.212Z,13.20
2023-01-19T12:52:07.293Z,12.40